Larkfield, United Kingdom
Current Conditions -  °F | °C
As of 4:20 PM on Thursday 18 Dec 2014 (Local Time) from EGKB Reporting Station
Drizzle Drizzle  
Wind Chill: 52°   Ceiling: 500
Heat Index: 52°   Visibility: 1.8mi
Dew Point: 50°   Wind: 16mph
Humidity: 94%   Direction: 230°SW
Pressure: 29.85"   Gusts: NA
Location:  51.29°N, 0.43°E
Report Text: EGKB 181620Z 23014KT 3000 -DZ HZ BKN005 11/10 Q1011
Loading
Personal Weather Stations






























Interactive Weather Map New forecast layout! Learn more

10-Day Weather Forecast

Advertisements
Track Severe Weather on mobile